createdAt,value
2018-06-11T00:00:45.072Z,95313.00
2018-06-11T00:06:14.397Z,95307.00
2018-06-11T00:11:43.903Z,95303.00
2018-06-11T00:17:13.227Z,95303.00
2018-06-11T00:22:42.450Z,95299.00
2018-06-11T00:28:11.816Z,95292.00
2018-06-11T00:33:41.264Z,95301.00
2018-06-11T00:39:10.568Z,95290.00
2018-06-11T00:44:39.932Z,95284.00
2018-06-11T00:50:09.251Z,95282.00
2018-06-11T00:56:09.794Z,95282.00
2018-06-11T01:01:39.956Z,95286.00
2018-06-11T01:07:09.323Z,95287.00
2018-06-11T01:12:38.748Z,95287.00
2018-06-11T01:18:08.005Z,95287.00
2018-06-11T01:23:37.231Z,95280.00
2018-06-11T01:29:06.492Z,95281.00
2018-06-11T01:34:35.788Z,95285.00
2018-06-11T01:40:05.118Z,95284.00
2018-06-11T01:45:34.498Z,95278.00
2018-06-11T01:51:03.796Z,95278.00
2018-06-11T01:56:33.014Z,95276.00
2018-06-11T02:02:02.207Z,95271.00
2018-06-11T02:07:31.517Z,95277.00
2018-06-11T02:13:00.767Z,95281.00
2018-06-11T02:18:30.071Z,95272.00
2018-06-11T02:23:59.258Z,95255.00
2018-06-11T02:29:28.470Z,95264.00
2018-06-11T02:34:57.717Z,95252.00
2018-06-11T02:40:26.991Z,95248.00
2018-06-11T02:45:56.210Z,95239.00
2018-06-11T02:51:26.134Z,95243.00
2018-06-11T02:56:55.377Z,95231.00
2018-06-11T03:02:24.588Z,95238.00
2018-06-11T03:07:53.890Z,95240.00
2018-06-11T03:13:24.044Z,95231.00
2018-06-11T03:18:53.404Z,95237.00
2018-06-11T03:24:22.705Z,95231.00
2018-06-11T03:29:51.990Z,95221.00
2018-06-11T03:35:21.305Z,95225.00
2018-06-11T03:40:50.504Z,95205.00
2018-06-11T03:46:19.746Z,95213.00
2018-06-11T03:51:49.014Z,95212.00
2018-06-11T03:57:18.280Z,95202.00
2018-06-11T04:02:47.752Z,95205.00
2018-06-11T04:08:17.024Z,95195.00
2018-06-11T04:13:46.434Z,95193.00
2018-06-11T04:19:15.816Z,95189.00
2018-06-11T04:24:45.177Z,95191.00
2018-06-11T04:30:14.602Z,95186.00
2018-06-11T04:35:43.987Z,95186.00
2018-06-11T04:41:13.503Z,95189.00
2018-06-11T04:46:42.982Z,95183.00
2018-06-11T04:52:12.710Z,95185.00
2018-06-11T04:57:42.033Z,95189.00
2018-06-11T05:03:11.435Z,95193.00
2018-06-11T05:08:40.806Z,95198.00
2018-06-11T05:14:10.162Z,95197.00
2018-06-11T05:19:39.517Z,95193.00
2018-06-11T05:25:08.774Z,95184.00
2018-06-11T05:30:38.058Z,95178.00
2018-06-11T05:36:07.930Z,95175.00
2018-06-11T05:41:37.582Z,95172.00
2018-06-11T05:47:06.905Z,95171.00
2018-06-11T05:52:36.202Z,95165.00
2018-06-11T05:58:05.509Z,95164.00
2018-06-11T06:03:34.728Z,95165.00
2018-06-11T06:09:05.331Z,95162.00
2018-06-11T06:14:34.605Z,95177.00
2018-06-11T06:20:03.918Z,95174.00
2018-06-11T06:25:33.263Z,95180.00
2018-06-11T06:31:02.588Z,95194.00
2018-06-11T06:36:31.963Z,95189.00
2018-06-11T06:42:01.258Z,95183.00
2018-06-11T06:47:30.698Z,95184.00
2018-06-11T06:52:59.966Z,95177.00
2018-06-11T06:58:29.242Z,95183.00
2018-06-11T07:03:58.493Z,95196.00
2018-06-11T07:09:27.801Z,95202.00
2018-06-11T07:14:57.067Z,95195.00
2018-06-11T07:20:26.337Z,95213.00
2018-06-11T07:25:56.676Z,95210.00
2018-06-11T07:31:25.949Z,95217.00
2018-06-11T07:36:55.183Z,95204.00
2018-06-11T07:42:24.552Z,95214.00
2018-06-11T07:47:53.845Z,95217.00
2018-06-11T07:53:23.159Z,95216.00
2018-06-11T07:58:52.421Z,95206.00
2018-06-11T08:04:21.686Z,95210.00
2018-06-11T08:09:50.892Z,95206.00
2018-06-11T08:15:20.257Z,95201.00
2018-06-11T08:20:49.597Z,95190.00
2018-06-11T08:26:19.110Z,95184.00
2018-06-11T08:31:48.512Z,95182.00
2018-06-11T08:37:17.950Z,95185.00
2018-06-11T08:42:47.245Z,95182.00
2018-06-11T08:48:16.651Z,95178.00
2018-06-11T08:53:47.768Z,95178.00
2018-06-11T08:59:17.257Z,95180.00
2018-06-11T09:04:46.737Z,95181.00
2018-06-11T09:10:16.637Z,95174.00
2018-06-11T09:15:45.993Z,95166.00
2018-06-11T09:21:15.345Z,95166.00
2018-06-11T09:26:44.728Z,95170.00
2018-06-11T09:32:14.028Z,95163.00
2018-06-11T09:37:43.605Z,95168.00
2018-06-11T09:43:13.052Z,95162.00
2018-06-11T09:48:42.509Z,95162.00
2018-06-11T09:54:11.896Z,95160.00
2018-06-11T09:59:41.230Z,95144.00
2018-06-11T10:05:10.558Z,95146.00
2018-06-11T10:10:39.763Z,95143.00
2018-06-11T10:16:09.034Z,95138.00
2018-06-11T10:21:38.272Z,95131.00
2018-06-11T10:27:08.632Z,95125.00
2018-06-11T10:32:37.914Z,95114.00
2018-06-11T10:38:07.147Z,95113.00
2018-06-11T10:43:36.413Z,95114.00
2018-06-11T10:49:05.664Z,95109.00
2018-06-11T10:54:34.892Z,95098.00
2018-06-11T11:00:04.205Z,95091.00
2018-06-11T11:05:33.501Z,95082.00
2018-06-11T11:11:02.799Z,95087.00
2018-06-11T11:16:32.106Z,95075.00
2018-06-11T11:22:01.494Z,95066.00
2018-06-11T11:27:30.817Z,95043.00
2018-06-11T11:33:00.072Z,95029.00
2018-06-11T11:38:29.305Z,95026.00
2018-06-11T11:43:58.590Z,95014.00
2018-06-11T11:49:28.024Z,95011.00
2018-06-11T11:54:57.261Z,94996.00
2018-06-11T12:00:26.579Z,94973.00
2018-06-11T12:05:55.810Z,94959.00
2018-06-11T12:11:25.113Z,94955.00
2018-06-11T12:16:54.157Z,94950.00
2018-06-11T12:22:23.424Z,94953.00
2018-06-11T12:27:52.721Z,94956.00
2018-06-11T12:33:22.102Z,94953.00
2018-06-11T12:38:51.498Z,94931.00
2018-06-11T12:44:21.913Z,94921.00
2018-06-11T12:49:51.217Z,94923.00
2018-06-11T12:55:20.490Z,94934.00
2018-06-11T13:00:49.856Z,94952.00
2018-06-11T13:06:18.810Z,94958.00
2018-06-11T13:11:48.157Z,94954.00
2018-06-11T13:17:17.567Z,94938.00
2018-06-11T13:22:46.882Z,94933.00
2018-06-11T13:28:16.224Z,94942.00
2018-06-11T13:33:46.308Z,94942.00
2018-06-11T13:39:15.946Z,94934.00
2018-06-11T13:44:45.502Z,94927.00
2018-06-11T13:50:16.100Z,94911.00
2018-06-11T13:55:46.472Z,94900.00
2018-06-11T14:01:16.193Z,94888.00
2018-06-11T14:06:45.795Z,94870.00
2018-06-11T14:12:15.260Z,94843.00
2018-06-11T14:17:44.717Z,94809.00
2018-06-11T14:23:14.396Z,94807.00
2018-06-11T14:28:43.935Z,94796.00
2018-06-11T14:34:13.424Z,94785.00
2018-06-11T14:39:42.596Z,94821.00
2018-06-11T14:45:12.121Z,94815.00
2018-06-11T14:50:41.652Z,94805.00
2018-06-11T14:56:11.065Z,94830.00
2018-06-11T15:01:40.469Z,94847.00
2018-06-11T15:07:09.951Z,94831.00
2018-06-11T15:12:39.407Z,94794.00
2018-06-11T15:18:08.651Z,94810.00
2018-06-11T15:23:49.656Z,94812.00
2018-06-11T15:29:19.081Z,94813.00
2018-06-11T15:34:48.373Z,94804.00
2018-06-11T15:40:17.756Z,94800.00
2018-06-11T15:45:47.299Z,94774.00
2018-06-11T15:51:16.767Z,94755.00
2018-06-11T15:56:48.888Z,94738.00
2018-06-11T16:02:20.041Z,94733.00
2018-06-11T16:07:49.929Z,94745.00
2018-06-11T16:13:22.410Z,94748.00
2018-06-11T16:18:57.278Z,94751.00
2018-06-11T16:24:26.412Z,94761.00
2018-06-11T16:29:55.783Z,94730.00
2018-06-11T16:35:25.156Z,94713.00
2018-06-11T16:40:55.729Z,94715.00
2018-06-11T16:46:26.862Z,94716.00
2018-06-11T16:51:57.287Z,94728.00
2018-06-11T16:57:27.536Z,94735.00
2018-06-11T17:02:57.203Z,94727.00
2018-06-11T17:08:29.879Z,94731.00
2018-06-11T17:13:59.334Z,94717.00
2018-06-11T17:19:28.808Z,94730.00
2018-06-11T17:24:58.206Z,94746.00
2018-06-11T17:30:27.707Z,94746.00
2018-06-11T17:35:58.114Z,94772.00
2018-06-11T17:41:27.600Z,94785.00
2018-06-11T17:47:23.733Z,94791.00
2018-06-11T17:52:53.607Z,94790.00
2018-06-11T17:58:25.519Z,94788.00
2018-06-11T18:03:58.064Z,94786.00
2018-06-11T18:09:28.609Z,94795.00
2018-06-11T18:15:04.559Z,94814.00
2018-06-11T18:20:48.004Z,94804.00
2018-06-11T18:26:22.591Z,94826.00
2018-06-11T18:31:53.756Z,94830.00
2018-06-11T18:37:26.917Z,94834.00
2018-06-11T18:42:57.492Z,94826.00
2018-06-11T18:48:44.585Z,94834.00
2018-06-11T18:54:17.419Z,94841.00
2018-06-11T18:59:59.674Z,94840.00
2018-06-11T19:05:30.542Z,94849.00
2018-06-11T19:11:15.130Z,94878.00
2018-06-11T19:16:50.447Z,94890.00
2018-06-11T19:22:25.027Z,94901.00
2018-06-11T19:28:01.550Z,94913.00
2018-06-11T19:33:51.341Z,94936.00
2018-06-11T19:39:25.013Z,94961.00
2018-06-11T19:44:54.443Z,94957.00
2018-06-11T19:50:24.617Z,94978.00
2018-06-11T19:55:54.330Z,94976.00
2018-06-11T20:01:25.646Z,94989.00
2018-06-11T20:06:58.469Z,94989.00
2018-06-11T20:12:37.209Z,94989.00
2018-06-11T20:18:18.137Z,94979.00
2018-06-11T20:23:48.521Z,94978.00
2018-06-11T20:29:18.889Z,94981.00
2018-06-11T20:34:48.593Z,94982.00
2018-06-11T20:40:19.989Z,94974.00
2018-06-11T20:45:50.222Z,94976.00
2018-06-11T20:51:20.147Z,94982.00
2018-06-11T20:56:50.840Z,94985.00
2018-06-11T21:02:21.688Z,94998.00
2018-06-11T21:07:51.652Z,95000.00
2018-06-11T21:13:22.627Z,94989.00
2018-06-11T21:18:52.463Z,94999.00
2018-06-11T21:24:23.554Z,94993.00
2018-06-11T21:30:00.021Z,94998.00
2018-06-11T21:35:35.534Z,94996.00
2018-06-11T21:41:04.888Z,95001.00
2018-06-11T21:46:34.220Z,95000.00
2018-06-11T21:52:03.720Z,95008.00
2018-06-11T21:57:36.780Z,95007.00
2018-06-11T22:03:06.147Z,95005.00
2018-06-11T22:08:35.352Z,95004.00
2018-06-11T22:14:04.642Z,95015.00
2018-06-11T22:19:33.848Z,95030.00
2018-06-11T22:25:03.198Z,95041.00
2018-06-11T22:30:33.851Z,95039.00
2018-06-11T22:36:03.155Z,95038.00
2018-06-11T22:41:32.428Z,95035.00
2018-06-11T22:47:01.645Z,95033.00
2018-06-11T22:52:30.878Z,95025.00
2018-06-11T22:58:01.090Z,95025.00
2018-06-11T23:03:30.357Z,95027.00
2018-06-11T23:08:59.624Z,95021.00
2018-06-11T23:14:28.970Z,95014.00
2018-06-11T23:19:58.237Z,95018.00
2018-06-11T23:25:27.665Z,95003.00
2018-06-11T23:30:56.899Z,95011.00
2018-06-11T23:36:26.193Z,95004.00
2018-06-11T23:53:53.295Z,94995.00
2018-06-11T23:59:22.791Z,94990.00
